KHII/HII METAR and TAF weather

Enter ICAO airport designator
Station Type Date Time Source
KHII METAR 2020/07/15 04:15 UTC NOAA

KHII 150415Z AUTO 12006KT 10SM CLR 38/00 A2971 RMK AO2


Station Type Date Time Source
KHII Decoded METAR 2020/07/15 04:15 UTC NOAA

Station name not available
Jul 15, 2020 - 12:15 AM EDT / 2020.07.15 0415 UTC
Wind: from the ESE (120 degrees) at 7 MPH (6 KT):0
Visibility: 10 mile(s):0
Sky conditions: clear
Temperature: 100 F (38 C)
Dew Point: 32 F (0 C)
Relative Humidity: 9%
Pressure (altimeter): 29.71 in. Hg (1006 hPa)
ob: KHII 150415Z AUTO 12006KT 10SM CLR 38/00 A2971 RMK AO2
cycle: 4

Station Type Date Time Source
KHII TAF UTC NOAA

Error!

Example: see airport list